TAF KJHW
KJHW 270541Z 2706/2806 29012KT 6SM -SN OVC025 TEMPO 2706/2709 2SM -SN BKN015 FM271200 28010KT P6SM OVC025 FM272000 25008KT P6SM OVC025 FM280200 21005KT 2SM -SN OVC007=
METAR KJHW
WC KJHW
WS KJHW
WV KJHW